Time;durP1;ratioP1;P1;durP2;ratioP2;P2;SDS_P1;SDS_P2;PMS_P1;PMS_P2;Temp;Humidity;BMP_temperature;BMP_pressure;BME280_temperature;BME280_humidity;BME280_pressure;Samples;Min_cycle;Max_cycle;Signal;HPM_P1;HPM_P2
2022/06/01 00:00:56;;;;;;;8.63;5.97;;;;;;;10.47;82.01;100191.50;5104180;28;20112;-70
2022/06/01 00:03:23;;;;;;;16.08;6.07;;;;;;;10.45;82.06;100185.41;5103942;28;20032;-70
2022/06/01 00:05:51;;;;;;;6.22;4.28;;;;;;;10.47;82.04;100194.09;5103879;28;20068;-71
2022/06/01 00:08:16;;;;;;;13.15;4.93;;;;;;;10.43;82.34;100200.19;5104208;28;20054;-71
2022/06/01 00:10:42;;;;;;;9.00;4.75;;;;;;;10.41;82.39;100200.16;5103625;28;20059;-71
2022/06/01 00:13:07;;;;;;;13.05;4.63;;;;;;;10.41;82.23;100196.72;5103931;28;20060;-71
2022/06/01 00:15:33;;;;;;;8.90;5.32;;;;;;;10.35;82.42;100195.03;5103799;28;20028;-70
2022/06/01 00:17:59;;;;;;;9.23;4.22;;;;;;;10.35;82.44;100197.63;5103800;28;20424;-70
2022/06/01 00:20:26;;;;;;;4.82;3.42;;;;;;;10.35;82.38;100202.81;5103734;28;20054;-70
2022/06/01 00:22:51;;;;;;;12.13;3.78;;;;;;;10.34;82.45;100206.31;5103796;28;20035;-70
2022/06/01 00:25:17;;;;;;;12.10;3.58;;;;;;;10.34;82.75;100206.31;5103385;28;20118;-70
2022/06/01 00:27:43;;;;;;;8.85;3.25;;;;;;;10.34;82.85;100208.91;5103580;28;20020;-70
2022/06/01 00:30:14;;;;;;;11.15;3.80;;;;;;;10.32;82.67;100202.88;5103658;28;20084;-70
2022/06/01 00:32:40;;;;;;;9.77;4.50;;;;;;;10.35;82.75;100202.81;5103630;28;20035;-70
2022/06/01 00:35:07;;;;;;;9.88;3.35;;;;;;;10.36;82.73;100209.75;5103428;28;20032;-70
2022/06/01 00:37:33;;;;;;;8.63;3.65;;;;;;;10.36;82.50;100208.88;5103573;28;20081;-70
2022/06/01 00:39:58;;;;;;;7.90;3.67;;;;;;;10.40;82.65;100205.38;5103220;28;20020;-71
2022/06/01 00:42:27;;;;;;;9.25;3.90;;;;;;;10.39;82.48;100198.47;5103392;28;20027;-70
2022/06/01 00:44:53;;;;;;;7.05;3.13;;;;;;;10.44;82.22;100207.06;5103345;28;20427;-70
2022/06/01 00:47:20;;;;;;;6.50;3.65;;;;;;;10.44;82.53;100203.59;5103544;28;20031;-71
2022/06/01 00:49:54;;;;;;;7.35;3.22;;;;;;;10.44;82.46;100204.47;5103283;28;20070;-71
2022/06/01 00:52:35;;;;;;;6.85;3.03;;;;;;;10.49;82.34;100200.13;5103123;28;20099;-69
2022/06/01 00:55:29;;;;;;;10.15;3.47;;;;;;;10.52;82.33;100200.09;5103042;28;20035;-70
2022/06/01 00:58:01;;;;;;;7.32;3.33;;;;;;;10.48;82.12;100195.81;5103466;28;20020;-70
2022/06/01 01:00:32;;;;;;;9.48;3.78;;;;;;;10.51;82.06;100198.34;5103226;28;20095;-70
2022/06/01 01:03:00;;;;;;;9.82;4.45;;;;;;;10.49;82.06;100194.06;5103368;28;20036;-69
2022/06/01 01:05:27;;;;;;;6.97;3.53;;;;;;;10.44;81.98;100186.31;5103220;28;20020;-71
2022/06/01 01:07:53;;;;;;;9.18;4.15;;;;;;;10.39;82.03;100190.69;5107214;28;20103;-69
2022/06/01 01:10:19;;;;;;;9.13;3.72;;;;;;;10.37;82.07;100190.69;5107131;28;20240;-70
2022/06/01 01:12:58;;;;;;;13.75;3.50;;;;;;;10.32;82.07;100182.09;5107177;28;20024;-70
2022/06/01 01:15:54;;;;;;;16.40;3.78;;;;;;;10.26;82.35;100177.84;5107153;28;20024;-70
2022/06/01 01:18:29;;;;;;;7.10;3.63;;;;;;;10.20;82.36;100185.69;5098740;28;20040;-70
2022/06/01 01:21:02;;;;;;;10.52;3.58;;;;;;;10.19;82.38;100180.53;5107124;28;20027;-70
2022/06/01 01:23:56;;;;;;;10.02;4.20;;;;;;;10.12;82.78;100180.59;5106789;28;20016;-70
2022/06/01 01:26:23;;;;;;;13.85;3.92;;;;;;;10.09;82.86;100171.97;5106878;28;20162;-70
2022/06/01 01:28:49;;;;;;;9.73;4.05;;;;;;;10.06;83.20;100172.00;5106850;28;20039;-70
2022/06/01 01:31:19;;;;;;;20.65;4.55;;;;;;;10.05;83.32;100173.72;5106888;28;20024;-70
2022/06/01 01:33:47;;;;;;;6.78;3.92;;;;;;;9.98;83.26;100165.19;5088268;28;20024;-71
2022/06/01 01:36:14;;;;;;;10.70;3.63;;;;;;;9.99;83.40;100171.22;5106702;28;20024;-71
2022/06/01 01:38:40;;;;;;;14.18;4.07;;;;;;;9.92;83.66;100167.81;5106476;28;20024;-70
2022/06/01 01:41:07;;;;;;;6.30;3.42;;;;;;;9.94;84.17;100173.84;5106363;28;20035;-70
2022/06/01 01:43:37;;;;;;;12.63;4.22;;;;;;;9.94;83.73;100163.47;5106492;28;20375;-69
2022/06/01 01:46:03;;;;;;;10.25;4.22;;;;;;;9.91;83.63;100161.78;5106729;28;20111;-70
2022/06/01 01:48:30;;;;;;;9.80;4.10;;;;;;;9.81;83.94;100144.56;5106532;28;20059;-71
2022/06/01 01:50:56;;;;;;;11.52;4.53;;;;;;;9.87;84.07;100165.25;5088192;28;20054;-71
2022/06/01 01:53:21;;;;;;;13.05;4.78;;;;;;;9.86;83.99;100165.28;5106223;28;20028;-71
2022/06/01 01:56:17;;;;;;;9.43;3.92;;;;;;;9.82;84.09;100172.25;5106390;28;20020;-71
2022/06/01 01:59:18;;;;;;;10.07;4.03;;;;;;;9.78;84.03;100160.16;5106258;28;20050;-71
2022/06/01 02:01:55;;;;;;;11.48;4.20;;;;;;;9.76;83.97;100173.13;5023545;28;20033;-71
2022/06/01 02:07:22;;;;;;;8.65;4.40;;;;;;;9.74;83.71;100176.63;5023649;28;20045;-70
2022/06/01 02:12:43;;;;;;;10.10;4.93;;;;;;;9.73;83.77;100177.50;5023432;28;20052;-70
2022/06/01 02:15:16;;;;;;;20.95;5.50;;;;;;;9.69;83.98;100178.38;5023159;28;20026;-70
2022/06/01 02:17:49;;;;;;;12.10;4.38;;;;;;;9.68;84.18;100174.94;5022670;28;20431;-70
2022/06/01 02:20:24;;;;;;;12.77;4.75;;;;;;;9.66;84.36;100171.50;5022651;28;20259;-70
2022/06/01 02:22:50;;;;;;;6.80;4.07;;;;;;;9.68;83.96;100174.94;5022664;28;20038;-70
2022/06/01 02:25:16;;;;;;;12.77;4.60;;;;;;;9.62;84.13;100170.66;5022456;28;20190;-70
2022/06/01 02:27:44;;;;;;;15.25;6.00;;;;;;;9.70;83.83;100177.50;5022648;28;20045;-71
2022/06/01 02:30:13;;;;;;;14.82;4.47;;;;;;;9.69;84.05;100175.81;5022176;28;20083;-70
2022/06/01 02:32:40;;;;;;;10.10;5.35;;;;;;;9.69;83.91;100186.16;5022584;28;20038;-70
2022/06/01 02:35:09;;;;;;;10.95;5.40;;;;;;;9.69;83.85;100175.81;5022039;28;20505;-70
2022/06/01 02:37:39;;;;;;;13.05;4.97;;;;;;;9.70;83.81;100177.50;5024006;28;20041;-70
2022/06/01 02:40:09;;;;;;;15.65;5.72;;;;;;;9.71;83.69;100182.72;5104921;28;20020;-70
2022/06/01 02:42:43;;;;;;;10.50;4.63;;;;;;;9.73;83.43;100186.13;5105351;28;20044;-70
2022/06/01 02:45:10;;;;;;;15.48;5.70;;;;;;;9.73;83.65;100182.69;5104857;28;20102;-71
2022/06/01 02:47:39;;;;;;;11.23;4.25;;;;;;;9.73;83.94;100180.09;5105041;28;20032;-70
2022/06/01 02:50:12;;;;;;;14.68;4.68;;;;;;;9.74;84.16;100177.50;5104712;28;20034;-70
2022/06/01 02:52:38;;;;;;;12.10;4.22;;;;;;;9.77;84.20;100180.06;5104901;28;20051;-70
2022/06/01 02:55:05;;;;;;;12.45;4.70;;;;;;;9.79;84.38;100173.09;5104617;28;20027;-69
2022/06/01 02:57:37;;;;;;;12.50;4.30;;;;;;;9.84;84.31;100170.47;5105053;28;20133;-70
2022/06/01 03:00:09;;;;;;;16.75;5.22;;;;;;;9.88;84.37;100169.59;5104773;28;20016;-70
2022/06/01 03:02:39;;;;;;;8.80;3.78;;;;;;;9.90;84.57;100165.22;5104963;28;20046;-70
2022/06/01 03:05:05;;;;;;;9.05;3.63;;;;;;;9.96;84.35;100169.50;5105010;28;20027;-70
2022/06/01 03:07:32;;;;;;;11.43;4.63;;;;;;;10.05;84.29;100173.72;5104973;28;20024;-70
2022/06/01 03:09:57;;;;;;;9.77;4.10;;;;;;;10.10;84.07;100165.91;5104426;28;20027;-70
2022/06/01 03:12:23;;;;;;;8.15;3.92;;;;;;;10.15;84.08;100170.19;5104724;28;20028;-70
2022/06/01 03:14:48;;;;;;;6.50;3.60;;;;;;;10.17;84.21;100165.81;5104412;28;20058;-70
2022/06/01 03:17:14;;;;;;;10.32;4.05;;;;;;;10.22;83.82;100168.41;5104455;28;20024;-70
2022/06/01 03:19:39;;;;;;;12.10;3.85;;;;;;;10.28;83.81;100170.06;5104628;28;20054;-70
2022/06/01 03:22:04;;;;;;;12.02;3.65;;;;;;;10.24;83.53;100158.84;5104451;28;20054;-70
2022/06/01 03:24:30;;;;;;;10.77;4.22;;;;;;;10.41;83.34;100169.03;5104153;28;20028;-70
2022/06/01 03:26:56;;;;;;;7.65;3.33;;;;;;;10.46;83.31;100160.34;5086137;28;20023;-70
2022/06/01 03:29:24;;;;;;;9.48;3.97;;;;;;;10.55;83.29;100165.44;5103392;28;20031;-71
2022/06/01 03:31:50;;;;;;;6.22;3.15;;;;;;;10.65;83.26;100166.19;5104353;28;20084;-71
2022/06/01 03:34:16;;;;;;;8.77;3.20;;;;;;;10.79;83.00;100166.00;5103975;28;20020;-71
2022/06/01 03:36:41;;;;;;;8.30;3.65;;;;;;;10.95;82.94;100168.41;5104398;28;20026;-71
2022/06/01 03:39:06;;;;;;;9.85;3.85;;;;;;;11.07;81.95;100170.81;5103941;28;20028;-71
2022/06/01 03:41:32;;;;;;;4.88;3.55;;;;;;;11.13;81.47;100162.94;5103964;28;20388;-71
2022/06/01 03:46:41;;;;;;;4.57;3.10;;;;;;;11.62;82.12;100162.19;5104102;28;20039;-72
2022/06/01 03:49:07;;;;;;;11.35;3.00;;;;;;;11.95;82.39;100152.09;5103814;28;20024;-72
2022/06/01 03:51:32;;;;;;;6.68;3.00;;;;;;;12.29;80.79;100153.22;5103543;28;20074;-71
2022/06/01 03:53:57;;;;;;;7.90;2.75;;;;;;;12.59;79.45;100150.88;5103427;28;20410;-71
2022/06/01 03:56:23;;;;;;;5.43;2.40;;;;;;;13.01;79.28;100154.34;5103792;28;20091;-73
2022/06/01 03:58:50;;;;;;;3.35;2.42;;;;;;;13.36;78.52;100149.19;5103780;28;20178;-71
2022/06/01 04:01:16;;;;;;;8.70;2.70;;;;;;;13.51;76.61;100155.81;5103795;28;20367;-71
2022/06/01 04:03:42;;;;;;;5.75;2.60;;;;;;;13.73;76.10;100156.13;5103584;28;20040;-71
2022/06/01 04:06:07;;;;;;;4.72;2.63;;;;;;;13.80;74.58;100151.59;5103720;28;20028;-72
2022/06/01 04:08:32;;;;;;;8.95;2.67;;;;;;;13.85;72.72;100151.50;5103467;28;20079;-71
2022/06/01 04:10:58;;;;;;;5.80;2.53;;;;;;;13.78;71.83;100161.22;5103367;28;20083;-71
2022/06/01 04:13:26;;;;;;;7.13;2.42;;;;;;;13.77;71.95;100146.47;5103722;28;20079;-72
2022/06/01 04:15:51;;;;;;;10.60;2.65;;;;;;;13.79;71.48;100149.03;5103749;28;20096;-73
2022/06/01 04:18:17;;;;;;;6.25;2.40;;;;;;;13.80;70.34;100148.97;5103362;28;20460;-71
2022/06/01 04:20:43;;;;;;;7.63;2.72;;;;;;;13.97;71.10;100135.50;5103595;28;20028;-73
2022/06/01 04:23:09;;;;;;;7.07;2.70;;;;;;;14.24;69.39;100142.63;5103626;28;20024;-72
2022/06/01 04:25:34;;;;;;;6.40;2.22;;;;;;;14.43;68.87;100134.25;5103450;28;20023;-72
2022/06/01 04:28:00;;;;;;;8.45;3.03;;;;;;;14.89;69.17;100144.28;5103710;28;20020;-72
2022/06/01 04:30:25;;;;;;;5.97;2.25;;;;;;;15.36;68.40;100130.59;5103352;28;20080;-72
2022/06/01 04:32:52;;;;;;;5.38;2.28;;;;;;;16.31;68.38;100142.22;5103531;28;20028;-72
2022/06/01 04:35:20;;;;;;;5.20;1.92;;;;;;;16.78;63.33;100128.22;5103186;28;20065;-73
2022/06/01 04:37:46;;;;;;;5.35;2.03;;;;;;;17.17;61.77;100136.38;5103703;28;20093;-72
2022/06/01 04:40:13;;;;;;;7.72;2.40;;;;;;;17.45;60.55;100136.09;5102906;28;20418;-70
2022/06/01 04:42:39;;;;;;;5.07;2.45;;;;;;;17.75;59.66;100128.75;5103279;28;20032;-73
2022/06/01 04:45:06;;;;;;;6.07;2.20;;;;;;;18.32;57.87;100136.75;5103314;28;20095;-72
2022/06/01 04:47:32;;;;;;;4.47;2.05;;;;;;;18.95;56.44;100144.41;5103327;28;20032;-73
2022/06/01 04:49:57;;;;;;;8.68;2.10;;;;;;;19.30;55.23;100141.88;5103545;28;20100;-72
2022/06/01 04:52:23;;;;;;;6.32;2.20;;;;;;;19.44;53.59;100138.56;5102887;28;20075;-65
2022/06/01 04:54:48;;;;;;;7.20;2.13;;;;;;;19.29;53.11;100147.22;5102973;28;20032;-72
2022/06/01 04:57:13;;;;;;;5.03;1.77;;;;;;;18.97;52.30;100149.59;5103268;28;20027;-72
2022/06/01 04:59:39;;;;;;;5.88;2.22;;;;;;;18.44;51.18;100150.28;5103005;28;20016;-71
2022/06/01 05:02:05;;;;;;;4.90;1.90;;;;;;;17.73;52.04;100147.19;5103166;28;20020;-72
2022/06/01 05:04:30;;;;;;;5.03;1.73;;;;;;;17.34;53.19;100154.91;5102910;28;20026;-71
2022/06/01 05:06:56;;;;;;;6.15;2.13;;;;;;;17.43;53.85;100144.94;5084905;28;20031;-72
2022/06/01 05:09:22;;;;;;;5.72;1.90;;;;;;;17.43;53.24;100140.53;5102653;28;20031;-71
2022/06/01 05:11:47;;;;;;;6.43;2.22;;;;;;;17.82;53.26;100146.81;5102835;28;20032;-72
2022/06/01 05:14:13;;;;;;;4.25;1.90;;;;;;;18.17;52.36;100151.47;5102955;28;20035;-72
2022/06/01 05:16:38;;;;;;;9.02;1.85;;;;;;;18.50;51.64;100146.53;5103035;28;20035;-70
2022/06/01 05:19:04;;;;;;;6.00;2.17;;;;;;;18.52;50.36;100144.66;5102782;28;20024;-69
2022/06/01 05:21:29;;;;;;;6.90;2.55;;;;;;;18.86;50.73;100150.13;5102932;28;20024;-69
2022/06/01 05:23:55;;;;;;;8.68;2.08;;;;;;;19.40;50.08;100139.66;5102797;28;20020;-69
2022/06/01 05:26:20;;;;;;;6.22;2.17;;;;;;;19.99;47.90;100141.09;5102843;28;20035;-67
2022/06/01 05:28:46;;;;;;;6.15;1.83;;;;;;;19.98;47.39;100135.91;5102493;28;20107;-67
2022/06/01 05:31:13;;;;;;;4.03;1.48;;;;;;;19.82;47.15;100148.06;5102682;28;20039;-67
2022/06/01 05:33:43;;;;;;;4.53;1.80;;;;;;;19.38;47.54;100145.91;5102514;28;20488;-67
2022/06/01 05:36:08;;;;;;;5.63;1.90;;;;;;;19.11;47.29;100139.31;5102643;28;20036;-67
2022/06/01 05:38:34;;;;;;;5.68;1.50;;;;;;;19.27;46.45;100156.97;5102652;28;20062;-68
2022/06/01 05:41:00;;;;;;;5.32;1.55;;;;;;;19.13;47.16;100139.22;5102753;28;20107;-68
2022/06/01 05:43:25;;;;;;;7.93;1.73;;;;;;;19.01;46.90;100154.66;5102852;28;20039;-68
2022/06/01 05:45:51;;;;;;;5.35;2.10;;;;;;;18.53;46.77;100149.84;5102399;28;20463;-67
2022/06/01 05:48:19;;;;;;;4.60;1.58;;;;;;;18.04;48.25;100151.13;5102602;28;20020;-69
2022/06/01 05:50:45;;;;;;;7.55;1.88;;;;;;;18.61;49.63;100151.28;5102631;28;20043;-67
2022/06/01 05:53:11;;;;;;;3.40;1.30;;;;;;;19.47;47.81;100148.09;5105198;28;20042;-69
2022/06/01 05:55:36;;;;;;;5.63;1.60;;;;;;;19.87;46.89;100142.56;5106077;28;20050;-69
2022/06/01 05:58:14;;;;;;;5.30;1.50;;;;;;;20.33;46.45;100148.16;5106397;28;20020;-70
2022/06/01 06:00:42;;;;;;;7.15;1.92;;;;;;;20.62;45.67;100154.50;5106087;28;20020;-69
2022/06/01 06:03:07;;;;;;;4.80;1.88;;;;;;;21.09;44.19;100148.44;5087600;28;20020;-70
2022/06/01 06:08:19;;;;;;;13.10;2.25;;;;;;;22.37;41.93;100155.03;5106443;28;20039;-71
2022/06/01 06:10:44;;;;;;;4.10;1.88;;;;;;;22.78;40.67;100150.75;5105906;28;20012;-69
2022/06/01 06:13:10;;;;;;;6.03;1.52;;;;;;;23.05;40.21;100151.72;5106251;28;20149;-70
2022/06/01 06:15:35;;;;;;;7.63;1.40;;;;;;;23.20;39.46;100154.28;5106092;28;20051;-70
2022/06/01 06:18:00;;;;;;;4.05;1.65;;;;;;;23.58;38.98;100142.94;5087874;28;20053;-70
2022/06/01 06:20:26;;;;;;;5.40;1.50;;;;;;;23.85;38.75;100144.66;5106180;28;20040;-69
2022/06/01 06:22:51;;;;;;;4.10;1.15;;;;;;;24.49;37.84;100139.41;5105900;28;20111;-68
2022/06/01 06:25:17;;;;;;;3.35;1.40;;;;;;;24.94;37.06;100138.88;5105818;28;20127;-68
2022/06/01 06:27:42;;;;;;;5.88;1.25;;;;;;;25.26;34.93;100145.41;5106040;28;20029;-69
2022/06/01 06:30:08;;;;;;;3.42;1.48;;;;;;;24.80;34.14;100131.03;5087609;28;20024;-69
2022/06/01 06:32:34;;;;;;;7.05;1.70;;;;;;;24.30;34.31;100147.88;5105918;28;20020;-69
2022/06/01 06:34:59;;;;;;;3.33;1.08;;;;;;;23.98;34.81;100149.97;5105565;28;20095;-70
2022/06/01 06:37:24;;;;;;;3.08;1.55;;;;;;;23.60;32.79;100149.00;5105767;28;20030;-69
2022/06/01 06:39:50;;;;;;;3.58;1.27;;;;;;;23.22;34.24;100155.03;5105463;28;20036;-68
2022/06/01 06:42:15;;;;;;;2.45;1.13;;;;;;;22.90;34.58;100153.56;5105841;28;20063;-69
2022/06/01 06:44:41;;;;;;;2.38;1.08;;;;;;;22.46;35.14;100155.41;5105486;28;20012;-69
2022/06/01 06:47:06;;;;;;;2.22;1.15;;;;;;;22.83;36.01;100157.56;5105494;28;20058;-68
2022/06/01 06:49:32;;;;;;;6.40;1.50;;;;;;;23.15;35.49;100158.09;5105712;28;20027;-67
2022/06/01 06:51:57;;;;;;;4.25;1.23;;;;;;;23.13;34.68;100159.16;5086937;28;20052;-68
2022/06/01 06:54:23;;;;;;;4.13;1.30;;;;;;;22.97;35.35;100170.72;5104866;28;20111;-69
2022/06/01 06:56:49;;;;;;;5.30;1.45;;;;;;;23.46;36.10;100165.84;5105251;28;20047;-69
2022/06/01 06:59:16;;;;;;;4.63;1.27;;;;;;;23.73;35.00;100172.88;5105246;28;20083;-67
2022/06/01 07:01:42;;;;;;;4.43;1.10;;;;;;;23.40;33.99;100172.38;5105478;28;20024;-69
2022/06/01 07:04:07;;;;;;;3.50;1.35;;;;;;;22.50;35.20;100171.00;5104227;28;20023;-68
2022/06/01 07:06:33;;;;;;;5.40;1.20;;;;;;;22.24;35.83;100173.47;5105294;28;20030;-69
2022/06/01 07:09:00;;;;;;;4.65;1.25;;;;;;;22.24;35.75;100168.16;5105072;28;20020;-68
2022/06/01 07:11:28;;;;;;;3.45;1.23;;;;;;;22.55;36.64;100176.00;5086699;28;20024;-70
2022/06/01 07:13:54;;;;;;;4.22;1.30;;;;;;;23.11;35.54;100180.44;5104998;28;20025;-69
2022/06/01 07:16:24;;;;;;;2.90;1.10;;;;;;;23.46;35.54;100181.72;5105043;28;20016;-69
2022/06/01 07:18:51;;;;;;;3.45;1.27;;;;;;;24.08;34.67;100181.16;5105042;28;20035;-69
2022/06/01 07:21:18;;;;;;;8.32;1.90;;;;;;;24.25;33.82;100178.19;5104975;28;20047;-69
2022/06/01 07:23:45;;;;;;;9.73;1.92;;;;;;;24.61;33.80;100177.50;5104900;28;20047;-69
2022/06/01 07:26:14;;;;;;;3.03;0.95;;;;;;;24.99;33.29;100186.31;5086351;28;20024;-69
2022/06/01 07:28:40;;;;;;;3.72;1.15;;;;;;;25.20;31.34;100183.06;5086331;28;20062;-68
2022/06/01 07:31:06;;;;;;;3.85;1.30;;;;;;;25.03;31.82;100182.50;5104708;28;20020;-69
2022/06/01 07:33:33;;;;;;;8.98;1.40;;;;;;;25.25;31.71;100178.25;5104501;28;20024;-69
2022/06/01 07:36:03;;;;;;;2.17;1.10;;;;;;;25.56;31.14;100175.09;5104448;28;20047;-69
2022/06/01 07:44:06;;;;;;;2.47;1.00;;;;;;;23.73;31.33;100174.66;5104648;28;20031;-69
2022/06/01 07:46:34;;;;;;;3.58;1.27;;;;;;;23.10;32.42;100172.59;5104472;28;20046;-69
2022/06/01 07:48:59;;;;;;;2.60;1.17;;;;;;;22.61;34.18;100174.78;5104379;28;20027;-69
2022/06/01 07:51:25;;;;;;;1.77;1.02;;;;;;;22.69;34.30;100183.09;5104081;28;20048;-69
2022/06/01 07:53:50;;;;;;;4.65;1.52;;;;;;;22.60;34.12;100181.03;5104030;28;20016;-69
2022/06/01 07:56:16;;;;;;;4.03;1.45;;;;;;;22.80;34.52;100178.88;5104048;28;20046;-69
2022/06/01 07:58:41;;;;;;;2.85;1.13;;;;;;;22.93;34.36;100178.97;5104321;28;20023;-70
2022/06/01 08:01:07;;;;;;;2.65;1.45;;;;;;;22.57;33.35;100174.09;5104113;28;20050;-69
2022/06/01 08:03:32;;;;;;;1.50;0.88;;;;;;;22.46;33.79;100174.75;5103970;28;20023;-68
2022/06/01 08:05:57;;;;;;;3.47;0.90;;;;;;;22.57;34.08;100170.59;5103929;28;20123;-69
2022/06/01 08:08:23;;;;;;;3.45;1.65;;;;;;;22.61;33.86;100169.47;5103819;28;20028;-70
2022/06/01 08:10:48;;;;;;;5.22;1.25;;;;;;;22.59;34.25;100172.22;5103623;28;20028;-70
2022/06/01 08:13:15;;;;;;;3.97;1.23;;;;;;;22.93;34.80;100174.53;5103845;28;20020;-70
2022/06/01 08:15:49;;;;;;;8.07;1.30;;;;;;;23.19;34.06;100174.63;5103509;28;20031;-69
2022/06/01 08:18:20;;;;;;;4.90;1.40;;;;;;;23.55;34.34;100168.81;5103882;28;20051;-70
2022/06/01 08:20:47;;;;;;;2.92;1.02;;;;;;;24.14;33.16;100175.41;5103896;28;20031;-70
2022/06/01 08:23:14;;;;;;;3.28;1.45;;;;;;;24.37;32.80;100171.19;5104180;28;20035;-69
2022/06/01 08:25:41;;;;;;;1.80;1.05;;;;;;;24.73;32.19;100173.09;5103660;28;20035;-69
2022/06/01 08:28:07;;;;;;;3.28;1.38;;;;;;;24.65;31.88;100157.75;5103956;28;20016;-69
2022/06/01 08:30:34;;;;;;;2.95;1.10;;;;;;;24.95;31.82;100164.44;5103667;28;20368;-70
2022/06/01 08:33:00;;;;;;;2.97;1.30;;;;;;;25.35;31.64;100165.13;5103722;28;20035;-70
2022/06/01 08:35:32;;;;;;;2.75;1.60;;;;;;;25.61;31.33;100165.84;5103050;28;20027;-71
2022/06/01 08:37:59;;;;;;;;;;;;;;;25.07;30.96;100169.81;5104123;28;20043;-70
2022/06/01 08:40:28;;;;;;;5.65;1.25;;;;;;;24.36;32.26;100163.34;5103448;28;19945;-70
2022/06/01 08:43:03;;;;;;;2.58;1.23;;;;;;;24.26;32.88;100165.78;5103687;28;20045;-70
2022/06/01 08:45:29;;;;;;;3.10;1.50;;;;;;;24.22;32.04;100170.47;5103648;28;20389;-69
2022/06/01 08:47:56;;;;;;;4.40;1.27;;;;;;;23.89;32.22;100182.41;5085593;28;20046;-69
2022/06/01 08:50:25;;;;;;;2.65;1.30;;;;;;;23.37;32.16;100190.25;5103478;28;20432;-69
2022/06/01 08:52:53;;;;;;;6.05;1.33;;;;;;;22.59;33.55;100174.00;5103435;28;20051;-70
2022/06/01 08:55:18;;;;;;;2.85;1.10;;;;;;;22.57;34.22;100178.53;5103191;28;20024;-69
2022/06/01 08:58:10;;;;;;;2.42;1.20;;;;;;;22.13;34.47;100170.63;5103490;28;20027;-69
2022/06/01 09:00:42;;;;;;;3.30;1.48;;;;;;;21.36;35.27;100176.88;5103583;28;20028;-69
2022/06/01 09:03:16;;;;;;;2.83;1.38;;;;;;;21.45;36.06;100180.75;5103581;28;20028;-70
2022/06/01 09:05:48;;;;;;;2.65;1.17;;;;;;;21.48;35.57;100181.44;5103389;28;20035;-70
2022/06/01 09:08:32;;;;;;;2.40;1.20;;;;;;;20.93;35.99;100171.28;5085242;28;20054;-70
2022/06/01 09:11:12;;;;;;;3.03;1.30;;;;;;;20.75;36.58;100167.00;5103299;28;20115;-70
2022/06/01 09:13:58;;;;;;;2.92;1.35;;;;;;;21.20;36.92;100177.72;5103293;28;20054;-70
2022/06/01 09:16:30;;;;;;;4.03;1.45;;;;;;;21.39;36.94;100174.88;5103565;28;20047;-70
2022/06/01 09:18:56;;;;;;;5.55;1.25;;;;;;;21.75;36.11;100178.09;5103617;28;20024;-70
2022/06/01 09:24:28;;;;;;;3.45;1.15;;;;;;;22.54;35.73;100180.41;5103332;28;20502;-70
2022/06/01 09:27:08;;;;;;;2.17;1.25;;;;;;;23.07;33.72;100175.44;5103767;28;20039;-70
2022/06/01 09:29:53;;;;;;;4.60;1.42;;;;;;;23.25;33.63;100178.66;5107294;28;20427;-70
2022/06/01 09:32:36;;;;;;;3.70;1.13;;;;;;;23.98;32.58;100171.19;5106588;28;20041;-70
2022/06/01 09:35:06;;;;;;;3.42;1.13;;;;;;;24.11;31.64;100165.03;5107075;28;20070;-70
2022/06/01 09:37:36;;;;;;;1.60;1.13;;;;;;;24.00;32.32;100171.94;5107211;28;20020;-70
2022/06/01 09:40:21;;;;;;;3.20;1.08;;;;;;;24.23;32.00;100168.66;5106633;28;20448;-70
2022/06/01 09:42:53;;;;;;;7.28;1.15;;;;;;;24.59;31.17;100163.50;5107158;28;20044;-71
2022/06/01 09:45:22;;;;;;;;;;;;;;;24.97;31.63;100165.19;5107400;28;20020;-70
2022/06/01 09:47:50;;;;;;;5.25;1.52;;;;;;;25.42;30.45;100171.66;5107219;28;19911;-70
2022/06/01 09:50:34;;;;;;;4.15;1.05;;;;;;;25.47;29.00;100169.53;5106849;28;20023;-71
2022/06/01 09:53:21;;;;;;;3.03;0.90;;;;;;;25.29;28.45;100162.94;5106501;28;20040;-70
2022/06/01 09:56:01;;;;;;;4.97;1.10;;;;;;;25.13;29.37;100172.88;5106656;28;20043;-70
2022/06/01 10:07:24;;;;;;;1.65;0.90;;;;;;;25.33;29.28;100161.72;5106853;28;20259;-70
2022/06/01 10:09:56;;;;;;;2.85;1.20;;;;;;;24.99;29.33;100155.31;5106410;28;20088;-69
2022/06/01 10:12:41;;;;;;;5.00;1.30;;;;;;;24.57;30.40;100160.13;5106595;28;20541;-70
2022/06/01 10:15:22;;;;;;;5.38;1.02;;;;;;;24.59;30.34;100172.31;5106227;28;20058;-69
2022/06/01 10:17:53;;;;;;;1.92;1.00;;;;;;;24.34;30.25;100159.94;5106550;28;20067;-70
2022/06/01 10:21:00;;;;;;;3.83;1.15;;;;;;;23.77;31.18;100170.88;5106179;28;20035;-70
2022/06/01 10:23:59;;;;;;;4.13;1.65;;;;;;;23.12;31.92;100175.97;5003759;28;20026;-70
2022/06/01 10:26:37;;;;;;;3.10;1.30;;;;;;;22.06;32.33;100164.03;5003561;28;20038;-70
2022/06/01 10:29:23;;;;;;;3.60;1.33;;;;;;;22.16;33.52;100159.84;5003635;28;20031;-70
2022/06/01 10:31:55;;;;;;;2.63;1.00;;;;;;;22.12;33.14;100161.00;5003669;28;20067;-71
2022/06/01 10:34:31;;;;;;;2.33;0.85;;;;;;;22.03;33.91;100168.53;5003422;28;20098;-70
2022/06/01 10:37:03;;;;;;;3.75;1.08;;;;;;;22.12;33.62;100168.94;5003652;28;20045;-70
2022/06/01 10:39:42;;;;;;;1.50;1.23;;;;;;;22.30;33.53;100169.56;5003211;28;20517;-71
2022/06/01 10:42:23;;;;;;;3.03;1.20;;;;;;;22.33;33.32;100169.41;5003544;28;20035;-70
2022/06/01 10:45:12;;;;;;;4.25;1.67;;;;;;;22.04;34.04;100172.03;5003179;28;20064;-70
2022/06/01 10:48:13;;;;;;;3.03;1.10;;;;;;;22.25;34.41;100174.31;5003403;28;20026;-70
2022/06/01 10:51:19;;;;;;;3.35;1.67;;;;;;;22.38;34.20;100177.06;5003133;28;20066;-70
2022/06/01 10:54:17;;;;;;;3.65;1.40;;;;;;;21.72;34.48;100177.44;5002457;28;20042;-70
2022/06/01 10:56:42;;;;;;;2.30;1.20;;;;;;;21.52;34.60;100172.38;5023439;28;20047;-70
2022/06/01 10:59:12;;;;;;;2.58;1.65;;;;;;;21.23;35.64;100190.75;5105197;28;20028;-69
2022/06/01 11:01:56;;;;;;;2.92;1.13;;;;;;;20.89;36.42;100175.00;5105473;28;20090;-70
2022/06/01 11:04:30;;;;;;;4.75;1.13;;;;;;;20.70;36.21;100177.81;5105239;28;20056;-70
2022/06/01 11:07:06;;;;;;;1.52;1.10;;;;;;;20.35;36.82;100176.13;5105193;28;20035;-69
2022/06/01 11:09:37;;;;;;;3.10;1.27;;;;;;;19.90;37.46;100176.69;5105204;28;20111;-71
2022/06/01 11:12:25;;;;;;;3.38;1.42;;;;;;;19.51;38.33;100178.59;5105068;28;20031;-70
2022/06/01 11:15:13;;;;;;;6.03;1.70;;;;;;;19.15;38.76;100182.13;5104945;28;20317;-70
2022/06/01 11:17:46;;;;;;;1.88;1.02;;;;;;;18.87;39.08;100178.13;5105275;28;20084;-70
2022/06/01 11:20:30;;;;;;;3.88;1.50;;;;;;;18.44;39.42;100179.19;5105067;28;20024;-70
2022/06/01 11:23:01;;;;;;;4.30;1.38;;;;;;;18.10;40.91;100173.63;5104948;28;20329;-69
2022/06/01 11:25:35;;;;;;;4.22;1.50;;;;;;;17.84;41.51;100176.47;5086350;28;20024;-70
2022/06/01 11:28:12;;;;;;;5.22;1.60;;;;;;;17.65;41.84;100179.00;5105028;28;20035;-70
2022/06/01 11:31:24;;;;;;;1.92;1.33;;;;;;;17.54;42.33;100165.50;5104897;28;20190;-70
2022/06/01 11:33:57;;;;;;;3.47;1.25;;;;;;;17.38;42.49;100162.66;5094616;28;20035;-69
2022/06/01 11:36:48;;;;;;;3.80;1.60;;;;;;;17.19;43.29;100168.63;5104693;28;20031;-70
2022/06/01 11:39:34;;;;;;;6.13;1.73;;;;;;;16.96;43.98;100162.50;5104782;28;20140;-70
2022/06/01 11:42:09;;;;;;;6.28;1.85;;;;;;;16.79;44.87;100155.31;5104554;28;20032;-70
2022/06/01 11:44:38;;;;;;;2.67;1.52;;;;;;;16.62;45.69;100159.41;5104561;28;20050;-70
2022/06/01 11:47:20;;;;;;;4.50;1.55;;;;;;;16.57;45.08;100158.72;5086448;28;20020;-70
2022/06/01 11:50:03;;;;;;;5.45;1.60;;;;;;;16.57;44.96;100156.97;5104107;28;20024;-70
2022/06/01 11:52:41;;;;;;;3.03;1.73;;;;;;;16.64;44.65;100146.25;5104222;28;20048;-70
2022/06/01 11:55:11;;;;;;;2.75;1.50;;;;;;;16.74;44.32;100160.72;5104193;28;20020;-69
2022/06/01 11:57:53;;;;;;;3.40;1.80;;;;;;;16.68;45.53;100155.69;5104223;28;20020;-70
2022/06/01 12:00:19;;;;;;;;;;;;;;;16.65;46.62;100154.06;5104476;28;20087;-70
2022/06/01 12:02:53;;;;;;;3.95;1.73;;;;;;;16.46;47.16;100169.59;5104017;28;19908;-69
2022/06/01 12:05:27;;;;;;;2.53;1.70;;;;;;;16.34;46.89;100171.75;5104156;28;20046;-69
2022/06/01 12:07:58;;;;;;;5.90;2.30;;;;;;;16.20;48.65;100171.41;5104129;28;20027;-69
2022/06/01 12:10:28;;;;;;;5.15;2.20;;;;;;;16.10;49.28;100169.13;5103883;28;20024;-70